createdAt,value
2019-05-09T00:00:05.362Z,13.10
2019-05-09T00:02:40.904Z,13.00
2019-05-09T00:05:13.771Z,13.00
2019-05-09T00:07:45.339Z,13.00
2019-05-09T00:10:17.764Z,12.90
2019-05-09T00:12:49.145Z,13.00
2019-05-09T00:15:21.626Z,13.00
2019-05-09T00:17:53.330Z,13.10
2019-05-09T00:20:36.362Z,13.10
2019-05-09T00:23:07.754Z,13.00
2019-05-09T00:25:39.927Z,13.00
2019-05-09T00:28:13.534Z,13.00
2019-05-09T00:30:59.045Z,13.00
2019-05-09T00:33:31.025Z,13.00
2019-05-09T00:36:04.215Z,13.00
2019-05-09T00:38:43.476Z,13.10
2019-05-09T00:41:15.594Z,13.00
2019-05-09T00:43:54.302Z,13.00
2019-05-09T00:46:35.612Z,13.00
2019-05-09T00:49:17.294Z,13.10
2019-05-09T00:51:49.204Z,13.10
2019-05-09T00:54:20.594Z,13.20
2019-05-09T00:56:53.930Z,13.20
2019-05-09T00:59:25.758Z,13.10
2019-05-09T01:01:58.315Z,13.10
2019-05-09T01:04:29.685Z,13.00
2019-05-09T01:07:03.548Z,12.90
2019-05-09T01:09:34.943Z,12.80
2019-05-09T01:12:07.713Z,12.80
2019-05-09T01:14:40.085Z,12.70
2019-05-09T01:17:13.574Z,12.70
2019-05-09T01:19:44.884Z,12.70
2019-05-09T01:22:17.043Z,12.80
2019-05-09T01:24:48.412Z,12.80
2019-05-09T01:27:19.783Z,12.90
2019-05-09T01:29:53.438Z,12.90
2019-05-09T01:32:37.831Z,12.90
2019-05-09T01:35:09.292Z,12.90
2019-05-09T01:37:40.698Z,12.90
2019-05-09T01:40:13.257Z,12.90
2019-05-09T01:42:45.091Z,12.90
2019-05-09T01:45:16.841Z,12.90
2019-05-09T01:47:48.657Z,12.90
2019-05-09T01:50:19.990Z,12.90
2019-05-09T01:52:53.232Z,12.80
2019-05-09T01:55:43.312Z,12.80
2019-05-09T01:58:14.639Z,12.80
2019-05-09T02:00:46.289Z,12.90
2019-05-09T02:03:17.716Z,12.90
2019-05-09T02:05:49.229Z,12.90
2019-05-09T02:08:23.657Z,12.90
2019-05-09T02:10:56.102Z,12.90
2019-05-09T02:13:28.203Z,13.00
2019-05-09T02:16:23.401Z,13.10
2019-05-09T02:19:10.327Z,13.10
2019-05-09T02:21:43.686Z,13.10
2019-05-09T02:24:15.541Z,13.10
2019-05-09T02:26:47.239Z,13.20
2019-05-09T02:29:19.167Z,13.20
2019-05-09T02:31:50.946Z,13.30
2019-05-09T02:34:24.874Z,13.30
2019-05-09T02:36:58.702Z,13.40
2019-05-09T02:39:29.511Z,13.40
2019-05-09T02:42:09.155Z,13.30
2019-05-09T02:44:34.351Z,13.30
2019-05-09T02:47:11.274Z,13.30
2019-05-09T02:49:42.627Z,13.20
2019-05-09T02:52:14.390Z,13.20
2019-05-09T02:54:45.791Z,13.30
2019-05-09T02:57:18.514Z,13.30
2019-05-09T03:00:02.773Z,13.40
2019-05-09T03:02:43.023Z,13.40
2019-05-09T03:05:14.559Z,13.40
2019-05-09T03:07:52.187Z,13.50
2019-05-09T03:10:23.833Z,13.60
2019-05-09T03:12:55.332Z,13.70
2019-05-09T03:15:33.619Z,13.80
2019-05-09T03:18:08.541Z,13.90
2019-05-09T03:20:54.012Z,13.90
2019-05-09T03:23:28.503Z,14.00
2019-05-09T03:25:59.643Z,14.00
2019-05-09T03:28:59.066Z,14.10
2019-05-09T03:31:31.524Z,14.10
2019-05-09T03:34:04.355Z,14.20
2019-05-09T03:36:35.827Z,14.20
2019-05-09T03:39:09.023Z,14.20
2019-05-09T03:41:41.986Z,14.20
2019-05-09T03:44:14.206Z,14.20
2019-05-09T03:46:51.860Z,14.20
2019-05-09T03:49:24.822Z,14.20
2019-05-09T03:51:58.496Z,14.20
2019-05-09T03:54:30.155Z,14.20
2019-05-09T03:57:13.887Z,14.20
2019-05-09T03:59:52.020Z,14.20
2019-05-09T04:02:23.563Z,14.10
2019-05-09T04:04:57.716Z,14.10
2019-05-09T04:07:31.735Z,14.00
2019-05-09T04:10:04.852Z,13.90
2019-05-09T04:12:52.744Z,13.80
2019-05-09T04:15:11.358Z,13.70
2019-05-09T04:17:43.584Z,13.70
2019-05-09T04:20:17.501Z,13.80
2019-05-09T04:22:49.345Z,13.80
2019-05-09T04:25:27.338Z,13.80
2019-05-09T04:27:58.958Z,13.90
2019-05-09T04:30:30.391Z,14.00
2019-05-09T04:33:02.427Z,14.00
2019-05-09T04:35:34.788Z,14.10
2019-05-09T04:41:07.451Z,14.20
2019-05-09T04:43:40.428Z,14.20
2019-05-09T04:46:13.093Z,14.20
2019-05-09T04:48:44.782Z,14.30
2019-05-09T04:51:18.011Z,14.30
2019-05-09T04:53:48.404Z,14.30
2019-05-09T04:56:30.655Z,14.30
2019-05-09T04:59:03.488Z,14.30
2019-05-09T05:02:11.905Z,14.30
2019-05-09T05:04:44.006Z,14.40
2019-05-09T05:07:17.968Z,14.40
2019-05-09T05:09:48.821Z,14.40
2019-05-09T05:12:20.283Z,14.40
2019-05-09T05:14:51.641Z,14.40
2019-05-09T05:17:22.997Z,14.40
2019-05-09T05:19:54.789Z,14.40
2019-05-09T05:22:35.009Z,14.40
2019-05-09T05:25:09.276Z,14.40
2019-05-09T05:27:40.449Z,14.40
2019-05-09T05:30:12.370Z,14.40
2019-05-09T05:32:50.355Z,14.40
2019-05-09T05:35:30.014Z,14.40
2019-05-09T05:38:02.864Z,14.40
2019-05-09T05:40:34.206Z,14.30
2019-05-09T05:43:05.654Z,14.20
2019-05-09T05:45:44.189Z,14.20
2019-05-09T05:48:21.800Z,14.10
2019-05-09T05:50:53.531Z,13.90
2019-05-09T05:53:27.672Z,13.80
2019-05-09T05:55:58.810Z,13.70
2019-05-09T05:58:30.689Z,13.60
2019-05-09T06:01:04.463Z,13.60
2019-05-09T06:03:34.419Z,13.50
2019-05-09T06:06:05.714Z,13.40
2019-05-09T06:08:38.041Z,13.20
2019-05-09T06:11:12.306Z,13.20
2019-05-09T06:13:54.479Z,13.00
2019-05-09T06:16:17.798Z,13.00
2019-05-09T06:18:48.558Z,12.90
2019-05-09T06:21:20.126Z,12.90
2019-05-09T06:23:51.987Z,12.80
2019-05-09T06:26:23.351Z,12.80
2019-05-09T06:28:54.771Z,12.70
2019-05-09T06:31:28.310Z,12.70
2019-05-09T06:33:59.243Z,12.70
2019-05-09T06:36:31.030Z,12.70
2019-05-09T06:39:02.414Z,12.70
2019-05-09T06:41:34.590Z,12.70
2019-05-09T06:44:19.753Z,12.80
2019-05-09T06:46:59.136Z,12.80
2019-05-09T06:49:37.688Z,12.80
2019-05-09T06:52:08.955Z,12.80
2019-05-09T06:54:44.597Z,12.80
2019-05-09T06:57:18.660Z,12.80
2019-05-09T06:59:50.536Z,12.80
2019-05-09T07:02:38.827Z,12.80
2019-05-09T07:05:32.230Z,12.90
2019-05-09T07:08:31.389Z,12.90
2019-05-09T07:11:02.575Z,12.90
2019-05-09T07:13:38.075Z,12.90
2019-05-09T07:16:09.206Z,12.90
2019-05-09T07:18:40.746Z,13.00
2019-05-09T07:21:18.970Z,13.10
2019-05-09T07:23:50.977Z,13.10
2019-05-09T07:26:28.066Z,13.10
2019-05-09T07:28:59.908Z,13.10
2019-05-09T07:31:40.178Z,13.20
2019-05-09T07:34:23.547Z,13.20
2019-05-09T07:36:58.104Z,13.20
2019-05-09T07:39:29.008Z,13.20
2019-05-09T07:42:00.362Z,13.20
2019-05-09T07:44:45.343Z,13.20
2019-05-09T07:47:11.947Z,13.30
2019-05-09T07:49:43.321Z,13.30
2019-05-09T07:52:15.413Z,13.40
2019-05-09T07:54:48.352Z,13.40
2019-05-09T07:57:20.019Z,13.50
2019-05-09T07:59:52.501Z,13.50
2019-05-09T08:02:27.954Z,13.60
2019-05-09T08:04:59.024Z,13.60
2019-05-09T08:07:30.466Z,13.70
2019-05-09T08:10:02.381Z,13.80
2019-05-09T08:12:34.569Z,13.80
2019-05-09T08:15:13.844Z,13.90
2019-05-09T08:17:39.722Z,14.00
2019-05-09T08:20:13.796Z,14.10
2019-05-09T08:22:52.269Z,14.20
2019-05-09T08:25:18.316Z,14.20
2019-05-09T08:27:50.928Z,14.30
2019-05-09T08:30:23.353Z,14.30
2019-05-09T08:32:54.894Z,14.40
2019-05-09T08:35:27.967Z,14.50
2019-05-09T08:37:58.647Z,14.60
2019-05-09T08:40:31.341Z,14.60
2019-05-09T08:43:02.715Z,14.70
2019-05-09T08:45:34.679Z,14.90
2019-05-09T08:48:09.230Z,15.00
2019-05-09T08:50:44.235Z,15.10
2019-05-09T08:53:15.613Z,15.20
2019-05-09T08:55:59.086Z,15.40
2019-05-09T08:58:31.081Z,15.50
2019-05-09T09:01:04.466Z,15.70
2019-05-09T09:03:37.765Z,15.80
2019-05-09T09:06:08.918Z,16.00
2019-05-09T09:08:40.710Z,16.00
2019-05-09T09:11:12.130Z,16.10
2019-05-09T09:13:43.765Z,16.20
2019-05-09T09:16:21.432Z,16.20
2019-05-09T09:18:48.298Z,16.20
2019-05-09T09:21:19.650Z,16.30
2019-05-09T09:23:51.003Z,16.40
2019-05-09T09:26:22.263Z,16.40
2019-05-09T09:28:53.943Z,16.50
2019-05-09T09:31:25.226Z,16.60
2019-05-09T09:33:58.564Z,16.70
2019-05-09T09:36:30.517Z,16.80
2019-05-09T09:39:03.159Z,16.80
2019-05-09T09:41:34.847Z,16.90
2019-05-09T09:44:08.752Z,16.90
2019-05-09T09:46:39.495Z,17.00
2019-05-09T09:49:11.763Z,17.00
2019-05-09T09:51:43.425Z,17.10
2019-05-09T09:54:14.779Z,17.10
2019-05-09T09:56:50.036Z,17.00
2019-05-09T09:59:48.432Z,16.90
2019-05-09T10:02:27.541Z,16.80
2019-05-09T10:04:57.384Z,16.70
2019-05-09T10:07:28.966Z,16.70
2019-05-09T10:10:00.316Z,16.60
2019-05-09T10:12:34.296Z,16.60
2019-05-09T10:15:14.198Z,16.60
2019-05-09T10:18:03.466Z,16.50
2019-05-09T10:20:38.735Z,16.60
2019-05-09T10:23:18.274Z,16.50
2019-05-09T10:25:43.992Z,16.50
2019-05-09T10:28:21.585Z,16.60
2019-05-09T10:30:49.264Z,16.60
2019-05-09T10:33:20.743Z,16.60
2019-05-09T10:35:51.995Z,16.60
2019-05-09T10:38:23.218Z,16.60
2019-05-09T10:40:54.604Z,16.60
2019-05-09T10:43:38.665Z,16.60
2019-05-09T10:46:24.194Z,16.60
2019-05-09T10:48:59.836Z,16.70
2019-05-09T10:51:32.467Z,16.60
2019-05-09T10:54:04.210Z,16.60
2019-05-09T10:59:31.926Z,16.60
2019-05-09T11:02:03.696Z,16.70
2019-05-09T11:04:37.374Z,16.60
2019-05-09T11:07:08.423Z,16.60
2019-05-09T11:09:39.920Z,16.60
2019-05-09T11:12:11.746Z,16.50
2019-05-09T11:14:43.441Z,16.50
2019-05-09T11:17:20.974Z,16.40
2019-05-09T11:19:50.483Z,16.30
2019-05-09T11:22:23.555Z,16.20
2019-05-09T11:24:54.417Z,16.10
2019-05-09T11:27:28.891Z,15.90
2019-05-09T11:29:59.939Z,15.60
2019-05-09T11:32:32.398Z,15.50
2019-05-09T11:35:03.937Z,15.40
2019-05-09T11:37:38.374Z,15.40
2019-05-09T11:40:10.782Z,15.30
2019-05-09T11:42:43.236Z,15.20
2019-05-09T11:45:17.940Z,15.10
2019-05-09T11:47:51.421Z,15.00
2019-05-09T11:50:25.488Z,15.00
2019-05-09T11:52:59.778Z,15.00
2019-05-09T11:55:36.454Z,15.10
2019-05-09T11:58:04.578Z,15.20
2019-05-09T12:00:38.146Z,15.30
2019-05-09T12:03:10.211Z,15.30
2019-05-09T12:05:42.263Z,15.50
2019-05-09T12:08:14.228Z,15.50
2019-05-09T12:10:46.668Z,15.70
2019-05-09T12:13:19.650Z,15.90
2019-05-09T12:15:51.440Z,16.10
2019-05-09T12:18:22.987Z,16.20
2019-05-09T12:20:54.738Z,16.40
2019-05-09T12:23:28.998Z,16.60
2019-05-09T12:25:59.785Z,16.80
2019-05-09T12:28:31.989Z,16.90
2019-05-09T12:31:03.408Z,17.00
2019-05-09T12:33:35.350Z,17.10
2019-05-09T12:36:09.250Z,17.20
2019-05-09T12:38:45.946Z,17.40
2019-05-09T12:41:18.997Z,17.50
2019-05-09T12:43:50.371Z,17.60
2019-05-09T12:46:22.139Z,17.70
2019-05-09T12:48:54.538Z,17.90
2019-05-09T12:51:28.188Z,18.00
2019-05-09T12:54:01.337Z,18.20
2019-05-09T12:56:34.459Z,18.30
2019-05-09T12:59:08.744Z,18.40
2019-05-09T13:01:52.729Z,18.50
2019-05-09T13:04:29.077Z,18.50
2019-05-09T13:07:00.665Z,18.50
2019-05-09T13:09:34.866Z,18.60
2019-05-09T13:12:09.794Z,18.60
2019-05-09T13:14:41.494Z,18.60
2019-05-09T13:17:35.212Z,18.60
2019-05-09T13:20:09.821Z,18.60
2019-05-09T13:22:41.342Z,18.70
2019-05-09T13:25:13.312Z,18.90
2019-05-09T13:27:47.716Z,18.90
2019-05-09T13:30:20.662Z,19.00
2019-05-09T13:32:53.906Z,19.10
2019-05-09T13:35:27.634Z,19.10
2019-05-09T13:37:59.660Z,19.20
2019-05-09T13:40:32.819Z,19.20
2019-05-09T13:43:04.875Z,19.30
2019-05-09T13:45:36.639Z,19.30
2019-05-09T13:48:26.486Z,19.20
2019-05-09T13:50:42.022Z,19.20
2019-05-09T13:53:13.371Z,19.20
2019-05-09T13:55:49.210Z,19.30
2019-05-09T13:58:20.996Z,19.30
2019-05-09T14:00:58.914Z,19.40
2019-05-09T14:03:28.136Z,19.50
2019-05-09T14:06:00.003Z,19.60
2019-05-09T14:08:31.763Z,19.60
2019-05-09T14:11:04.027Z,19.60
2019-05-09T14:13:38.310Z,19.60
2019-05-09T14:16:19.276Z,19.60
2019-05-09T14:18:42.658Z,19.60
2019-05-09T14:21:21.585Z,19.60
2019-05-09T14:24:09.901Z,19.50
2019-05-09T14:26:27.687Z,19.50
2019-05-09T14:28:59.060Z,19.40
2019-05-09T14:31:32.495Z,19.30
2019-05-09T14:34:10.391Z,19.20
2019-05-09T14:36:45.513Z,19.10
2019-05-09T14:39:18.005Z,19.10
2019-05-09T14:41:52.733Z,19.00
2019-05-09T14:44:27.552Z,19.00
2019-05-09T14:47:01.602Z,18.90
2019-05-09T14:49:43.320Z,18.90
2019-05-09T14:52:09.295Z,18.80
2019-05-09T14:54:40.777Z,18.70
2019-05-09T14:57:12.543Z,18.70
2019-05-09T14:59:44.005Z,18.70
2019-05-09T15:02:17.901Z,18.70
2019-05-09T15:04:49.690Z,18.70
2019-05-09T15:07:21.543Z,18.70
2019-05-09T15:09:56.690Z,18.60
2019-05-09T15:12:28.506Z,18.50
2019-05-09T15:15:07.587Z,18.40
2019-05-09T15:17:40.235Z,18.40
2019-05-09T15:20:12.885Z,18.40
2019-05-09T15:22:44.275Z,18.30
2019-05-09T15:25:19.203Z,18.30
2019-05-09T15:27:50.873Z,18.30
2019-05-09T15:30:22.494Z,18.30
2019-05-09T15:32:54.105Z,18.30
2019-05-09T15:35:28.107Z,18.30
2019-05-09T15:38:00.238Z,18.30
2019-05-09T15:40:31.882Z,18.20
2019-05-09T15:43:04.021Z,18.20
2019-05-09T15:45:42.628Z,18.20
2019-05-09T15:48:18.080Z,18.20
2019-05-09T15:50:49.822Z,18.20
2019-05-09T15:53:22.051Z,18.20
2019-05-09T15:55:53.896Z,18.20
2019-05-09T15:58:25.726Z,18.20
2019-05-09T16:00:58.908Z,18.20
2019-05-09T16:03:30.927Z,18.20
2019-05-09T16:06:02.304Z,18.20
2019-05-09T16:08:34.149Z,18.20
2019-05-09T16:11:05.578Z,18.20
2019-05-09T16:13:37.384Z,18.20
2019-05-09T16:16:09.148Z,18.20
2019-05-09T16:18:42.906Z,18.20
2019-05-09T16:21:14.176Z,18.20
2019-05-09T16:23:48.544Z,18.20
2019-05-09T16:26:19.303Z,18.20
2019-05-09T16:28:51.231Z,18.20
2019-05-09T16:31:22.612Z,18.10
2019-05-09T16:33:54.011Z,18.10
2019-05-09T16:36:28.013Z,18.10
2019-05-09T16:38:59.088Z,18.00
2019-05-09T16:41:31.273Z,18.00
2019-05-09T16:44:03.363Z,18.00
2019-05-09T16:46:37.327Z,18.00
2019-05-09T16:49:11.678Z,18.00
2019-05-09T16:51:42.286Z,18.00
2019-05-09T16:54:14.036Z,17.90
2019-05-09T16:56:45.395Z,17.80
2019-05-09T16:59:18.166Z,17.70
2019-05-09T17:01:50.680Z,17.70
2019-05-09T17:04:22.086Z,17.60
2019-05-09T17:06:53.919Z,17.60
2019-05-09T17:09:28.495Z,17.60
2019-05-09T17:11:59.572Z,17.60
2019-05-09T17:14:31.762Z,17.60
2019-05-09T17:17:03.206Z,17.60
2019-05-09T17:19:37.634Z,17.60
2019-05-09T17:22:30.383Z,17.60
2019-05-09T17:25:01.797Z,17.50
2019-05-09T17:27:56.857Z,17.50
2019-05-09T17:30:49.163Z,17.40
2019-05-09T17:33:49.089Z,17.40
2019-05-09T17:36:45.107Z,17.40
2019-05-09T17:40:02.728Z,17.30
2019-05-09T17:42:34.468Z,17.30
2019-05-09T17:45:47.780Z,17.20
2019-05-09T17:48:49.175Z,17.20
2019-05-09T17:54:40.814Z,17.00
2019-05-09T17:57:53.293Z,16.90
2019-05-09T18:00:49.759Z,16.90
2019-05-09T18:06:49.811Z,16.70
2019-05-09T18:10:14.088Z,16.50
2019-05-09T18:14:02.860Z,16.50
2019-05-09T18:17:47.924Z,16.40
2019-05-09T18:23:47.899Z,16.20
2019-05-09T18:26:47.447Z,16.20
2019-05-09T18:30:05.160Z,16.20
2019-05-09T18:33:42.802Z,16.20
2019-05-09T18:44:00.660Z,16.10
2019-05-09T18:46:34.452Z,16.10
2019-05-09T18:49:27.495Z,16.10
2019-05-09T18:52:24.653Z,16.10
2019-05-09T18:55:42.598Z,16.10
2019-05-09T18:58:28.512Z,16.10
2019-05-09T19:01:21.382Z,16.10
2019-05-09T19:04:03.176Z,16.10
2019-05-09T19:07:00.423Z,16.10
2019-05-09T19:11:48.078Z,16.00
2019-05-09T19:13:06.226Z,16.00
2019-05-09T19:19:43.543Z,16.00
2019-05-09T19:22:33.368Z,16.00
2019-05-09T19:25:39.145Z,15.90
2019-05-09T19:28:49.080Z,15.90
2019-05-09T19:32:05.820Z,15.90
2019-05-09T19:38:16.399Z,15.80
2019-05-09T19:41:21.723Z,15.70
2019-05-09T19:44:18.744Z,15.70
2019-05-09T19:47:14.793Z,15.60
2019-05-09T19:50:19.608Z,15.60
2019-05-09T19:53:24.999Z,15.60
2019-05-09T19:56:39.307Z,15.60
2019-05-09T19:59:15.613Z,15.50
2019-05-09T20:02:39.579Z,15.50
2019-05-09T20:09:19.010Z,15.40
2019-05-09T20:12:41.364Z,15.40
2019-05-09T20:15:52.579Z,15.40
2019-05-09T20:18:51.750Z,15.40
2019-05-09T20:22:03.919Z,15.40
2019-05-09T20:25:20.796Z,15.30
2019-05-09T20:32:58.761Z,15.30
2019-05-09T20:35:48.002Z,15.30
2019-05-09T20:39:03.751Z,15.20
2019-05-09T20:42:38.904Z,15.10
2019-05-09T20:46:30.343Z,15.10
2019-05-09T20:49:27.977Z,15.10
2019-05-09T20:52:23.535Z,15.10
2019-05-09T20:55:21.572Z,15.00
2019-05-09T21:01:43.287Z,14.90
2019-05-09T21:04:29.666Z,14.80
2019-05-09T21:07:37.602Z,14.80
2019-05-09T21:10:40.736Z,14.80
2019-05-09T21:13:26.338Z,14.80
2019-05-09T21:16:31.718Z,14.80
2019-05-09T21:19:20.296Z,14.80
2019-05-09T21:22:30.100Z,14.80
2019-05-09T21:25:33.803Z,14.70
2019-05-09T21:30:19.738Z,14.70
2019-05-09T21:32:03.412Z,14.60
2019-05-09T21:35:12.688Z,14.60
2019-05-09T21:38:05.758Z,14.60
2019-05-09T21:41:20.165Z,14.60
2019-05-09T21:43:57.905Z,14.60
2019-05-09T21:47:09.404Z,14.50
2019-05-09T21:49:43.160Z,14.60
2019-05-09T21:52:38.532Z,14.60
2019-05-09T21:55:25.862Z,14.60
2019-05-09T21:58:12.055Z,14.60
2019-05-09T22:00:52.893Z,14.60
2019-05-09T22:03:41.987Z,14.60
2019-05-09T22:06:30.613Z,14.60
2019-05-09T22:09:27.136Z,14.50
2019-05-09T22:12:02.665Z,14.50
2019-05-09T22:14:45.585Z,14.50
2019-05-09T22:17:43.690Z,14.50
2019-05-09T22:20:27.950Z,14.50
2019-05-09T22:23:11.614Z,14.40
2019-05-09T22:26:03.733Z,14.40
2019-05-09T22:28:47.926Z,14.50
2019-05-09T22:31:27.743Z,14.50
2019-05-09T22:34:08.189Z,14.50
2019-05-09T22:36:51.379Z,14.50
2019-05-09T22:39:33.558Z,14.40
2019-05-09T22:42:20.590Z,14.40
2019-05-09T22:45:06.824Z,14.40
2019-05-09T22:47:51.663Z,14.40
2019-05-09T22:50:34.503Z,14.30
2019-05-09T22:53:22.418Z,14.20
2019-05-09T22:55:58.565Z,14.20
2019-05-09T22:58:32.661Z,14.20
2019-05-09T23:01:15.583Z,14.20
2019-05-09T23:04:05.859Z,14.10
2019-05-09T23:06:45.934Z,14.00
2019-05-09T23:09:17.689Z,14.00
2019-05-09T23:11:53.856Z,14.00
2019-05-09T23:14:34.315Z,14.10
2019-05-09T23:17:21.445Z,14.10
2019-05-09T23:20:08.521Z,14.00
2019-05-09T23:22:48.119Z,14.00
2019-05-09T23:25:28.807Z,14.00
2019-05-09T23:28:11.053Z,14.00
2019-05-09T23:30:42.713Z,14.00
2019-05-09T23:33:45.118Z,14.00
2019-05-09T23:36:21.692Z,14.00
2019-05-09T23:39:35.794Z,14.00
2019-05-09T23:42:15.149Z,14.00
2019-05-09T23:44:49.873Z,14.00
2019-05-09T23:47:29.549Z,14.10
2019-05-09T23:50:10.955Z,14.10
2019-05-09T23:52:44.548Z,14.10
2019-05-09T23:55:48.049Z,14.00
2019-05-09T23:58:43.517Z,14.00
